Startpagina
METAR-TAF:

METAR-TAF

Vliegvelden :

Aeropuerto de Gran Canaria

Gran Canaria, Spanje

breedte: 27-56N, lengte: 015-23W, hoogte: 23 m

Actueel weer

Dit bericht is 28 minuten geleden gemaakt, om 16:30 UTC
Wind 29 kt uit het noordnoordoosten
Temperatuur 25°C
Vochtigheid 69%
Druk 1018 hPa
Zicht 10 km of meer
Weinig wolken op 1800 ft

METAR: GCLP 151630Z 03029KT 9999 FEW018 25/19 Q1018 NOSIG

Tijdstip: 17:58 (16:58 UTC)

Verwachting

Dit bericht is 2 uur en het 58 minuten geleden gemaakt, om 14:00 UTC
Verwachting geldig van 15 om 15 UTC tot 16 om 15 UTC
Wind 25 kt uit het noorden
Zicht 10 km of meer
Weinig wolken op 2000 ft
Kans 30% :
Tijdelijke
van 15 om 15 UTC tot 16 om 02 UTC
Wind 25 kt uit het noorden met uitschieters tot 35 kt

TAF: GCLP 151400Z 1515/1615 01025KT 9999 FEW020 TX26/1614Z TN21/1605Z PROB30 TEMPO 1515/1602 01025G35KT

Waarnemingen en weersverwachtingen van meer dan 4000 vliegvelden (METAR en TAF).

De beschikbare stations zijn de gele en rode punten op de kaart.

Ga met uw muis naar het station om de naam te zien.

Klik dan om waarnemingen en weersverwachtingen te zien.

kaart wijzigen: klik op de groene knoppen met een zwart kruis om in te zoomen, op de groene knop met een streepje om uit te zoomen of op de groene pijlen voor aangrenzende kaarten.


METAR-TAF: